sensor_id;sensor_type;location;lat;lon;timestamp;pressure;altitude;pressure_sealevel;temperature;humidity
36190;BME280;22232;50.914;13.858;2024-01-10T00:02:39;99238.03;;;-8.19;88.85
36190;BME280;22232;50.914;13.858;2024-01-10T00:05:07;99241.91;;;-8.10;86.93
36190;BME280;22232;50.914;13.858;2024-01-10T00:07:34;99242.00;;;-8.12;84.18
36190;BME280;22232;50.914;13.858;2024-01-10T00:10:04;99237.34;;;-8.05;82.58
36190;BME280;22232;50.914;13.858;2024-01-10T00:12:32;99244.50;;;-8.10;81.15
36190;BME280;22232;50.914;13.858;2024-01-10T00:15:04;99237.34;;;-8.05;79.65
36190;BME280;22232;50.914;13.858;2024-01-10T00:17:33;99236.94;;;-7.97;78.15
36190;BME280;22232;50.914;13.858;2024-01-10T00:20:01;99227.97;;;-7.90;77.62
36190;BME280;22232;50.914;13.858;2024-01-10T00:22:28;99234.75;;;-8.05;77.67
36190;BME280;22232;50.914;13.858;2024-01-10T00:24:56;99227.31;;;-8.11;77.85
36190;BME280;22232;50.914;13.858;2024-01-10T00:27:24;99224.09;;;-7.99;76.01
36190;BME280;22232;50.914;13.858;2024-01-10T00:29:51;99228.34;;;-7.98;75.52
36190;BME280;22232;50.914;13.858;2024-01-10T00:32:19;99225.59;;;-7.95;74.98
36190;BME280;22232;50.914;13.858;2024-01-10T00:34:47;99226.38;;;-7.77;72.78
36190;BME280;22232;50.914;13.858;2024-01-10T00:37:14;99230.75;;;-7.62;70.73
36190;BME280;22232;50.914;13.858;2024-01-10T00:39:42;99226.41;;;-7.61;70.47
36190;BME280;22232;50.914;13.858;2024-01-10T00:42:09;99230.72;;;-7.44;68.74
36190;BME280;22232;50.914;13.858;2024-01-10T00:44:37;99223.09;;;-7.31;67.41
36190;BME280;22232;50.914;13.858;2024-01-10T00:47:05;99228.22;;;-7.30;67.11
36190;BME280;22232;50.914;13.858;2024-01-10T00:49:33;99229.63;;;-7.40;67.67
36190;BME280;22232;50.914;13.858;2024-01-10T00:52:01;99235.06;;;-7.45;67.65
36190;BME280;22232;50.914;13.858;2024-01-10T00:54:29;99227.28;;;-7.45;67.66
36190;BME280;22232;50.914;13.858;2024-01-10T00:56:56;99228.88;;;-7.42;67.59
36190;BME280;22232;50.914;13.858;2024-01-10T00:59:24;99221.34;;;-7.47;67.74
36190;BME280;22232;50.914;13.858;2024-01-10T01:01:52;99225.69;;;-7.47;67.95
36190;BME280;22232;50.914;13.858;2024-01-10T01:04:20;99220.34;;;-7.60;68.40
36190;BME280;22232;50.914;13.858;2024-01-10T01:06:48;99227.50;;;-7.65;69.04
36190;BME280;22232;50.914;13.858;2024-01-10T01:09:15;99225.66;;;-7.79;69.98
36190;BME280;22232;50.914;13.858;2024-01-10T01:11:43;99228.47;;;-7.83;70.43
36190;BME280;22232;50.914;13.858;2024-01-10T01:14:11;99225.53;;;-7.93;70.63
36190;BME280;22232;50.914;13.858;2024-01-10T01:16:38;99228.13;;;-7.93;71.01
36190;BME280;22232;50.914;13.858;2024-01-10T01:19:06;99221.41;;;-7.97;71.32
36190;BME280;22232;50.914;13.858;2024-01-10T01:21:34;99222.50;;;-8.01;71.91
36190;BME280;22232;50.914;13.858;2024-01-10T01:24:01;99215.16;;;-7.93;71.98
36190;BME280;22232;50.914;13.858;2024-01-10T01:26:29;99211.03;;;-7.97;71.66
36190;BME280;22232;50.914;13.858;2024-01-10T01:28:57;99218.59;;;-7.93;71.28
36190;BME280;22232;50.914;13.858;2024-01-10T01:31:24;99216.03;;;-7.77;70.76
36190;BME280;22232;50.914;13.858;2024-01-10T01:33:52;99214.88;;;-7.55;68.98
36190;BME280;22232;50.914;13.858;2024-01-10T01:36:20;99215.97;;;-7.59;68.90
36190;BME280;22232;50.914;13.858;2024-01-10T01:38:48;99216.28;;;-7.81;69.47
36190;BME280;22232;50.914;13.858;2024-01-10T01:41:15;99210.56;;;-7.88;69.98
36190;BME280;22232;50.914;13.858;2024-01-10T01:43:43;99210.34;;;-7.83;69.91
36190;BME280;22232;50.914;13.858;2024-01-10T01:46:11;99216.06;;;-7.94;70.43
36190;BME280;22232;50.914;13.858;2024-01-10T01:48:39;99215.75;;;-7.88;70.20
36190;BME280;22232;50.914;13.858;2024-01-10T01:51:10;99211.19;;;-7.83;69.93
36190;BME280;22232;50.914;13.858;2024-01-10T01:53:40;99213.94;;;-7.70;69.82
36190;BME280;22232;50.914;13.858;2024-01-10T01:56:10;99213.72;;;-7.66;69.25
36190;BME280;22232;50.914;13.858;2024-01-10T01:58:39;99209.94;;;-7.76;69.45
36190;BME280;22232;50.914;13.858;2024-01-10T02:01:07;99206.91;;;-7.84;70.01
36190;BME280;22232;50.914;13.858;2024-01-10T02:03:35;99206.34;;;-7.73;70.84
36190;BME280;22232;50.914;13.858;2024-01-10T02:06:03;99203.22;;;-7.96;71.50
36190;BME280;22232;50.914;13.858;2024-01-10T02:08:35;99198.41;;;-8.03;72.46
36190;BME280;22232;50.914;13.858;2024-01-10T02:11:03;99201.28;;;-8.25;73.20
36190;BME280;22232;50.914;13.858;2024-01-10T02:13:32;99197.66;;;-8.21;73.94
36190;BME280;22232;50.914;13.858;2024-01-10T02:16:01;99194.13;;;-8.20;73.06
36190;BME280;22232;50.914;13.858;2024-01-10T02:18:30;99196.91;;;-8.08;72.78
36190;BME280;22232;50.914;13.858;2024-01-10T02:20:58;99196.25;;;-8.11;73.00
36190;BME280;22232;50.914;13.858;2024-01-10T02:23:26;99194.25;;;-8.06;73.04
36190;BME280;22232;50.914;13.858;2024-01-10T02:25:54;99199.03;;;-7.98;73.10
36190;BME280;22232;50.914;13.858;2024-01-10T02:28:22;99202.81;;;-8.21;73.48
36190;BME280;22232;50.914;13.858;2024-01-10T02:30:51;99199.84;;;-7.98;73.12
36190;BME280;22232;50.914;13.858;2024-01-10T02:33:20;99197.91;;;-7.77;71.82
36190;BME280;22232;50.914;13.858;2024-01-10T02:35:48;99204.78;;;-7.76;71.35
36190;BME280;22232;50.914;13.858;2024-01-10T02:38:15;99209.25;;;-7.79;70.95
36190;BME280;22232;50.914;13.858;2024-01-10T02:40:43;99211.94;;;-7.81;71.43
36190;BME280;22232;50.914;13.858;2024-01-10T02:43:11;99209.06;;;-7.92;71.84
36190;BME280;22232;50.914;13.858;2024-01-10T02:45:38;99203.44;;;-8.00;72.38
36190;BME280;22232;50.914;13.858;2024-01-10T02:48:06;99198.31;;;-8.18;73.20
36190;BME280;22232;50.914;13.858;2024-01-10T02:50:34;99196.19;;;-8.27;74.25
36190;BME280;22232;50.914;13.858;2024-01-10T02:53:02;99197.84;;;-8.09;73.76
36190;BME280;22232;50.914;13.858;2024-01-10T02:55:29;99191.03;;;-7.94;73.15
36190;BME280;22232;50.914;13.858;2024-01-10T02:57:57;99192.44;;;-7.88;72.75
36190;BME280;22232;50.914;13.858;2024-01-10T03:00:25;99192.72;;;-8.10;72.92
36190;BME280;22232;50.914;13.858;2024-01-10T03:02:52;99191.84;;;-8.26;73.34
36190;BME280;22232;50.914;13.858;2024-01-10T03:05:20;99194.97;;;-8.20;74.12
36190;BME280;22232;50.914;13.858;2024-01-10T03:07:48;99196.34;;;-8.30;74.82
36190;BME280;22232;50.914;13.858;2024-01-10T03:10:15;99196.41;;;-8.47;75.33
36190;BME280;22232;50.914;13.858;2024-01-10T03:12:43;99196.09;;;-8.25;75.36
36190;BME280;22232;50.914;13.858;2024-01-10T03:15:10;99183.72;;;-8.36;75.04
36190;BME280;22232;50.914;13.858;2024-01-10T03:17:38;99185.22;;;-8.32;74.95
36190;BME280;22232;50.914;13.858;2024-01-10T03:20:06;99180.66;;;-8.27;74.40
36190;BME280;22232;50.914;13.858;2024-01-10T03:22:36;99176.94;;;-8.21;74.35
36190;BME280;22232;50.914;13.858;2024-01-10T03:25:04;99178.25;;;-8.30;73.93
36190;BME280;22232;50.914;13.858;2024-01-10T03:27:32;99176.06;;;-8.22;74.04
36190;BME280;22232;50.914;13.858;2024-01-10T03:30:00;99173.50;;;-8.22;73.61
36190;BME280;22232;50.914;13.858;2024-01-10T03:32:28;99178.63;;;-8.04;73.26
36190;BME280;22232;50.914;13.858;2024-01-10T03:34:55;99175.19;;;-8.21;73.42
36190;BME280;22232;50.914;13.858;2024-01-10T03:37:23;99177.25;;;-8.27;73.71
36190;BME280;22232;50.914;13.858;2024-01-10T03:39:51;99179.13;;;-8.47;74.80
36190;BME280;22232;50.914;13.858;2024-01-10T03:42:19;99171.06;;;-8.75;76.81
36190;BME280;22232;50.914;13.858;2024-01-10T03:44:46;99180.38;;;-9.08;79.93
36190;BME280;22232;50.914;13.858;2024-01-10T03:47:14;99175.81;;;-9.20;82.91
36190;BME280;22232;50.914;13.858;2024-01-10T03:49:42;99167.44;;;-9.25;84.52
36190;BME280;22232;50.914;13.858;2024-01-10T03:52:09;99168.53;;;-9.12;84.71
36190;BME280;22232;50.914;13.858;2024-01-10T03:54:37;99169.72;;;-9.19;85.09
36190;BME280;22232;50.914;13.858;2024-01-10T03:57:06;99170.88;;;-9.25;85.58
36190;BME280;22232;50.914;13.858;2024-01-10T03:59:33;99159.97;;;-9.31;86.29
36190;BME280;22232;50.914;13.858;2024-01-10T04:02:01;99162.25;;;-9.25;86.28
36190;BME280;22232;50.914;13.858;2024-01-10T04:04:29;99160.38;;;-9.21;86.60
36190;BME280;22232;50.914;13.858;2024-01-10T04:06:57;99156.94;;;-9.22;86.51
36190;BME280;22232;50.914;13.858;2024-01-10T04:09:24;99153.75;;;-9.27;86.25
36190;BME280;22232;50.914;13.858;2024-01-10T04:11:52;99164.34;;;-9.14;85.15
36190;BME280;22232;50.914;13.858;2024-01-10T04:14:20;99161.06;;;-9.18;84.74
36190;BME280;22232;50.914;13.858;2024-01-10T04:16:47;99157.22;;;-9.09;84.31
36190;BME280;22232;50.914;13.858;2024-01-10T04:19:15;99150.91;;;-9.04;83.08
36190;BME280;22232;50.914;13.858;2024-01-10T04:21:44;99157.59;;;-8.99;82.28
36190;BME280;22232;50.914;13.858;2024-01-10T04:24:11;99157.78;;;-8.85;81.08
36190;BME280;22232;50.914;13.858;2024-01-10T04:26:39;99150.31;;;-8.91;80.32
36190;BME280;22232;50.914;13.858;2024-01-10T04:29:07;99153.03;;;-8.77;79.44
36190;BME280;22232;50.914;13.858;2024-01-10T04:31:35;99156.09;;;-8.69;78.07
36190;BME280;22232;50.914;13.858;2024-01-10T04:34:03;99158.88;;;-8.56;76.31
36190;BME280;22232;50.914;13.858;2024-01-10T04:36:31;99148.25;;;-8.34;74.77
36190;BME280;22232;50.914;13.858;2024-01-10T04:38:58;99155.78;;;-8.45;74.29
36190;BME280;22232;50.914;13.858;2024-01-10T04:41:26;99155.47;;;-8.23;73.23
36190;BME280;22232;50.914;13.858;2024-01-10T04:43:54;99151.78;;;-8.19;72.42
36190;BME280;22232;50.914;13.858;2024-01-10T04:46:22;99147.72;;;-8.08;71.50
36190;BME280;22232;50.914;13.858;2024-01-10T04:48:49;99149.50;;;-8.08;70.75
36190;BME280;22232;50.914;13.858;2024-01-10T04:51:17;99144.44;;;-7.94;69.62
36190;BME280;22232;50.914;13.858;2024-01-10T04:53:45;99152.09;;;-7.92;69.05
36190;BME280;22232;50.914;13.858;2024-01-10T04:56:12;99150.81;;;-8.01;68.64
36190;BME280;22232;50.914;13.858;2024-01-10T04:58:40;99152.75;;;-7.89;68.05
36190;BME280;22232;50.914;13.858;2024-01-10T05:01:08;99148.06;;;-7.98;67.55
36190;BME280;22232;50.914;13.858;2024-01-10T05:03:35;99149.78;;;-7.97;67.66
36190;BME280;22232;50.914;13.858;2024-01-10T05:06:03;99148.28;;;-7.85;67.08
36190;BME280;22232;50.914;13.858;2024-01-10T05:08:32;99153.63;;;-7.56;65.92
36190;BME280;22232;50.914;13.858;2024-01-10T05:11:00;99158.16;;;-7.44;65.36
36190;BME280;22232;50.914;13.858;2024-01-10T05:13:28;99161.22;;;-7.38;64.54
36190;BME280;22232;50.914;13.858;2024-01-10T05:15:56;99162.16;;;-7.54;64.37
36190;BME280;22232;50.914;13.858;2024-01-10T05:18:23;99158.06;;;-7.58;63.97
36190;BME280;22232;50.914;13.858;2024-01-10T05:20:51;99165.81;;;-7.58;64.10
36190;BME280;22232;50.914;13.858;2024-01-10T05:23:19;99170.59;;;-7.67;64.36
36190;BME280;22232;50.914;13.858;2024-01-10T05:25:46;99173.59;;;-7.74;64.58
36190;BME280;22232;50.914;13.858;2024-01-10T05:28:14;99172.75;;;-7.75;65.17
36190;BME280;22232;50.914;13.858;2024-01-10T05:30:42;99173.16;;;-7.82;65.56
36190;BME280;22232;50.914;13.858;2024-01-10T05:33:10;99166.25;;;-7.82;66.10
36190;BME280;22232;50.914;13.858;2024-01-10T05:35:38;99170.16;;;-7.91;66.33
36190;BME280;22232;50.914;13.858;2024-01-10T05:38:06;99167.78;;;-8.11;67.30
36190;BME280;22232;50.914;13.858;2024-01-10T05:40:34;99171.03;;;-8.08;67.59
36190;BME280;22232;50.914;13.858;2024-01-10T05:43:02;99173.78;;;-8.11;67.90
36190;BME280;22232;50.914;13.858;2024-01-10T05:45:29;99166.28;;;-7.99;67.86
36190;BME280;22232;50.914;13.858;2024-01-10T05:47:58;99177.88;;;-8.07;68.00
36190;BME280;22232;50.914;13.858;2024-01-10T05:50:26;99163.44;;;-8.11;68.05
36190;BME280;22232;50.914;13.858;2024-01-10T05:52:54;99172.34;;;-8.16;68.45
36190;BME280;22232;50.914;13.858;2024-01-10T05:55:22;99176.69;;;-8.17;68.54
36190;BME280;22232;50.914;13.858;2024-01-10T05:57:50;99171.28;;;-8.12;68.63
36190;BME280;22232;50.914;13.858;2024-01-10T06:00:18;99167.09;;;-8.15;68.93
36190;BME280;22232;50.914;13.858;2024-01-10T06:02:48;99168.84;;;-8.15;69.19
36190;BME280;22232;50.914;13.858;2024-01-10T06:05:16;99179.75;;;-8.26;69.36
36190;BME280;22232;50.914;13.858;2024-01-10T06:07:44;99173.44;;;-8.38;69.98
36190;BME280;22232;50.914;13.858;2024-01-10T06:10:11;99171.03;;;-8.41;70.49
36190;BME280;22232;50.914;13.858;2024-01-10T06:12:39;99170.16;;;-8.40;70.92
36190;BME280;22232;50.914;13.858;2024-01-10T06:15:07;99166.69;;;-8.40;71.10
36190;BME280;22232;50.914;13.858;2024-01-10T06:17:35;99172.53;;;-8.37;70.88
36190;BME280;22232;50.914;13.858;2024-01-10T06:20:03;99175.31;;;-8.40;71.00
36190;BME280;22232;50.914;13.858;2024-01-10T06:22:32;99164.78;;;-8.37;71.17
36190;BME280;22232;50.914;13.858;2024-01-10T06:24:59;99169.22;;;-8.39;71.21
36190;BME280;22232;50.914;13.858;2024-01-10T06:27:27;99171.88;;;-8.40;71.14
36190;BME280;22232;50.914;13.858;2024-01-10T06:29:55;99178.25;;;-8.30;71.22
36190;BME280;22232;50.914;13.858;2024-01-10T06:32:22;99180.41;;;-8.38;70.84
36190;BME280;22232;50.914;13.858;2024-01-10T06:34:50;99184.91;;;-8.42;71.15
36190;BME280;22232;50.914;13.858;2024-01-10T06:37:18;99194.28;;;-8.39;71.09
36190;BME280;22232;50.914;13.858;2024-01-10T06:39:46;99192.78;;;-8.27;70.37
36190;BME280;22232;50.914;13.858;2024-01-10T06:42:13;99195.94;;;-8.38;70.61
36190;BME280;22232;50.914;13.858;2024-01-10T06:44:41;99181.56;;;-8.28;70.31
36190;BME280;22232;50.914;13.858;2024-01-10T06:47:09;99184.59;;;-8.20;69.39
36190;BME280;22232;50.914;13.858;2024-01-10T06:49:37;99183.41;;;-8.30;68.98
36190;BME280;22232;50.914;13.858;2024-01-10T06:52:06;99181.97;;;-8.36;69.37
36190;BME280;22232;50.914;13.858;2024-01-10T06:54:35;99190.34;;;-8.31;69.02
36190;BME280;22232;50.914;13.858;2024-01-10T06:57:03;99187.34;;;-8.23;68.75
36190;BME280;22232;50.914;13.858;2024-01-10T06:59:30;99183.69;;;-8.19;68.47
36190;BME280;22232;50.914;13.858;2024-01-10T07:01:58;99186.50;;;-8.06;68.18
36190;BME280;22232;50.914;13.858;2024-01-10T07:04:28;99187.66;;;-8.12;67.98
36190;BME280;22232;50.914;13.858;2024-01-10T07:06:56;99194.16;;;-8.04;67.57
36190;BME280;22232;50.914;13.858;2024-01-10T07:09:24;99193.88;;;-7.82;66.48
36190;BME280;22232;50.914;13.858;2024-01-10T07:11:51;99191.50;;;-7.70;65.48
36190;BME280;22232;50.914;13.858;2024-01-10T07:14:20;99194.09;;;-7.70;65.11
36190;BME280;22232;50.914;13.858;2024-01-10T07:16:48;99188.25;;;-7.57;65.45
36190;BME280;22232;50.914;13.858;2024-01-10T07:19:16;99189.06;;;-7.25;64.56
36190;BME280;22232;50.914;13.858;2024-01-10T07:21:43;99184.22;;;-7.00;63.70
36190;BME280;22232;50.914;13.858;2024-01-10T07:24:11;99189.38;;;-6.70;63.20
36190;BME280;22232;50.914;13.858;2024-01-10T07:26:39;99181.69;;;-6.41;61.64
36190;BME280;22232;50.914;13.858;2024-01-10T07:29:09;99184.31;;;-6.27;61.08
36190;BME280;22232;50.914;13.858;2024-01-10T07:31:37;99185.25;;;-6.13;60.42
36190;BME280;22232;50.914;13.858;2024-01-10T07:34:05;99177.78;;;-5.91;59.57
36190;BME280;22232;50.914;13.858;2024-01-10T07:36:33;99176.78;;;-5.74;59.44
36190;BME280;22232;50.914;13.858;2024-01-10T07:39:08;99173.59;;;-5.50;58.69
36190;BME280;22232;50.914;13.858;2024-01-10T07:41:35;99175.13;;;-5.48;58.49
36190;BME280;22232;50.914;13.858;2024-01-10T07:44:03;99185.91;;;-5.54;58.40
36190;BME280;22232;50.914;13.858;2024-01-10T07:46:31;99179.44;;;-5.47;57.12
36190;BME280;22232;50.914;13.858;2024-01-10T07:48:59;99179.53;;;-5.21;57.50
36190;BME280;22232;50.914;13.858;2024-01-10T07:51:28;99186.72;;;-4.71;56.53
36190;BME280;22232;50.914;13.858;2024-01-10T07:53:55;99184.56;;;-4.51;55.29
36190;BME280;22232;50.914;13.858;2024-01-10T07:56:23;99182.09;;;-4.15;54.58
36190;BME280;22232;50.914;13.858;2024-01-10T07:58:51;99184.28;;;-3.83;53.94
36190;BME280;22232;50.914;13.858;2024-01-10T08:01:19;99173.63;;;-3.67;53.65
36190;BME280;22232;50.914;13.858;2024-01-10T08:03:46;99172.63;;;-3.53;52.99
36190;BME280;22232;50.914;13.858;2024-01-10T08:06:14;99171.81;;;-3.54;52.35
36190;BME280;22232;50.914;13.858;2024-01-10T08:08:53;99170.25;;;-3.56;51.12
36190;BME280;22232;50.914;13.858;2024-01-10T08:11:20;99167.41;;;-3.40;51.23
36190;BME280;22232;50.914;13.858;2024-01-10T08:13:48;99162.19;;;-3.53;50.12
36190;BME280;22232;50.914;13.858;2024-01-10T08:16:16;99174.41;;;-3.54;51.04
36190;BME280;22232;50.914;13.858;2024-01-10T08:18:45;99165.25;;;-3.47;50.49
36190;BME280;22232;50.914;13.858;2024-01-10T08:21:13;99173.28;;;-3.50;51.56
36190;BME280;22232;50.914;13.858;2024-01-10T08:23:41;99176.09;;;-3.65;51.49
36190;BME280;22232;50.914;13.858;2024-01-10T08:26:09;99173.91;;;-3.72;52.02
36190;BME280;22232;50.914;13.858;2024-01-10T08:28:37;99178.09;;;-3.69;52.94
36190;BME280;22232;50.914;13.858;2024-01-10T08:31:05;99177.25;;;-3.57;52.04
36190;BME280;22232;50.914;13.858;2024-01-10T08:33:33;99170.03;;;-3.53;50.87
36190;BME280;22232;50.914;13.858;2024-01-10T08:36:01;99166.06;;;-3.46;50.61
36190;BME280;22232;50.914;13.858;2024-01-10T08:38:28;99161.97;;;-3.37;51.20
36190;BME280;22232;50.914;13.858;2024-01-10T08:40:56;99162.75;;;-3.24;50.80
36190;BME280;22232;50.914;13.858;2024-01-10T08:43:24;99168.59;;;-3.20;51.35
36190;BME280;22232;50.914;13.858;2024-01-10T08:45:52;99164.38;;;-3.10;51.56
36190;BME280;22232;50.914;13.858;2024-01-10T08:48:20;99154.56;;;-3.07;51.44
36190;BME280;22232;50.914;13.858;2024-01-10T08:50:47;99162.81;;;-3.13;50.24
36190;BME280;22232;50.914;13.858;2024-01-10T08:53:16;99166.44;;;-3.03;51.20
36190;BME280;22232;50.914;13.858;2024-01-10T08:55:43;99158.28;;;-3.22;52.27
36190;BME280;22232;50.914;13.858;2024-01-10T08:58:11;99169.69;;;-3.12;51.36
36190;BME280;22232;50.914;13.858;2024-01-10T09:00:39;99169.59;;;-3.10;50.88
36190;BME280;22232;50.914;13.858;2024-01-10T09:03:07;99161.28;;;-3.15;52.84
36190;BME280;22232;50.914;13.858;2024-01-10T09:05:35;99167.59;;;-3.07;52.97
36190;BME280;22232;50.914;13.858;2024-01-10T09:08:03;99161.78;;;-3.10;52.27
36190;BME280;22232;50.914;13.858;2024-01-10T09:10:31;99169.16;;;-3.04;53.67
36190;BME280;22232;50.914;13.858;2024-01-10T09:12:59;99164.44;;;-2.99;54.35
36190;BME280;22232;50.914;13.858;2024-01-10T09:15:27;99166.94;;;-2.97;53.50
36190;BME280;22232;50.914;13.858;2024-01-10T09:17:54;99171.88;;;-3.06;52.83
36190;BME280;22232;50.914;13.858;2024-01-10T09:20:22;99159.09;;;-2.97;52.72
36190;BME280;22232;50.914;13.858;2024-01-10T09:22:51;99157.03;;;-2.81;53.36
36190;BME280;22232;50.914;13.858;2024-01-10T09:25:18;99164.31;;;-2.73;53.30
36190;BME280;22232;50.914;13.858;2024-01-10T09:27:46;99166.03;;;-2.61;53.57
36190;BME280;22232;50.914;13.858;2024-01-10T09:30:14;99160.22;;;-2.54;54.75
36190;BME280;22232;50.914;13.858;2024-01-10T09:32:45;99166.50;;;-2.56;55.14
36190;BME280;22232;50.914;13.858;2024-01-10T09:35:13;99162.34;;;-2.59;56.17
36190;BME280;22232;50.914;13.858;2024-01-10T09:37:41;99166.97;;;-2.86;56.61
36190;BME280;22232;50.914;13.858;2024-01-10T09:40:10;99168.72;;;-2.98;56.29
36190;BME280;22232;50.914;13.858;2024-01-10T09:42:40;99172.47;;;-3.26;55.57
36190;BME280;22232;50.914;13.858;2024-01-10T09:45:09;99172.72;;;-3.42;54.56
36190;BME280;22232;50.914;13.858;2024-01-10T09:47:39;99161.41;;;-3.30;55.47
36190;BME280;22232;50.914;13.858;2024-01-10T09:50:07;99157.94;;;-3.17;57.57
36190;BME280;22232;50.914;13.858;2024-01-10T09:52:41;99155.25;;;-3.05;58.92
36190;BME280;22232;50.914;13.858;2024-01-10T09:55:11;99154.50;;;-2.94;59.02
36190;BME280;22232;50.914;13.858;2024-01-10T09:57:40;99154.31;;;-2.80;57.95
36190;BME280;22232;50.914;13.858;2024-01-10T10:00:11;99149.78;;;-3.13;58.26
36190;BME280;22232;50.914;13.858;2024-01-10T10:02:39;99149.81;;;-3.02;59.11
36190;BME280;22232;50.914;13.858;2024-01-10T10:05:15;99151.31;;;-2.86;59.96
36190;BME280;22232;50.914;13.858;2024-01-10T10:07:47;99144.75;;;-2.57;60.14
36190;BME280;22232;50.914;13.858;2024-01-10T10:10:17;99145.75;;;-2.35;58.86
36190;BME280;22232;50.914;13.858;2024-01-10T10:12:46;99135.13;;;-2.10;58.34
36190;BME280;22232;50.914;13.858;2024-01-10T10:15:16;99135.94;;;-1.75;58.85
36190;BME280;22232;50.914;13.858;2024-01-10T10:17:47;99129.88;;;-1.65;57.79
36190;BME280;22232;50.914;13.858;2024-01-10T10:20:24;99135.09;;;-1.42;56.40
36190;BME280;22232;50.914;13.858;2024-01-10T10:23:06;99135.41;;;-1.24;56.75
36190;BME280;22232;50.914;13.858;2024-01-10T10:25:36;99126.25;;;-0.98;56.01
36190;BME280;22232;50.914;13.858;2024-01-10T10:28:05;99126.63;;;-0.70;54.50
36190;BME280;22232;50.914;13.858;2024-01-10T10:30:35;99131.53;;;-0.77;55.29
36190;BME280;22232;50.914;13.858;2024-01-10T10:33:03;99129.31;;;-0.60;54.96
36190;BME280;22232;50.914;13.858;2024-01-10T10:35:32;99126.19;;;-0.54;54.34
36190;BME280;22232;50.914;13.858;2024-01-10T10:38:08;99123.50;;;-0.43;55.07
36190;BME280;22232;50.914;13.858;2024-01-10T10:40:39;99124.72;;;-0.26;55.69
36190;BME280;22232;50.914;13.858;2024-01-10T10:43:12;99128.47;;;-0.40;57.07
36190;BME280;22232;50.914;13.858;2024-01-10T10:45:47;99122.81;;;-0.45;57.00
36190;BME280;22232;50.914;13.858;2024-01-10T10:48:20;99126.56;;;-0.59;57.71
36190;BME280;22232;50.914;13.858;2024-01-10T10:50:59;99132.25;;;-0.75;59.52
36190;BME280;22232;50.914;13.858;2024-01-10T10:53:31;99134.72;;;-0.94;59.82
36190;BME280;22232;50.914;13.858;2024-01-10T10:56:03;99136.41;;;-1.04;58.93
36190;BME280;22232;50.914;13.858;2024-01-10T10:58:42;99129.28;;;-1.13;60.04
36190;BME280;22232;50.914;13.858;2024-01-10T11:01:12;99140.09;;;-1.07;60.19
36190;BME280;22232;50.914;13.858;2024-01-10T11:03:41;99126.66;;;-1.02;58.59
36190;BME280;22232;50.914;13.858;2024-01-10T11:06:17;99127.88;;;-0.85;59.03
36190;BME280;22232;50.914;13.858;2024-01-10T11:09:00;99128.88;;;-0.98;59.74
36190;BME280;22232;50.914;13.858;2024-01-10T11:11:49;99126.00;;;-1.16;58.92
36190;BME280;22232;50.914;13.858;2024-01-10T11:14:21;99128.28;;;-1.33;59.69
36190;BME280;22232;50.914;13.858;2024-01-10T11:23:16;99123.91;;;-1.44;63.25
36190;BME280;22232;50.914;13.858;2024-01-10T11:25:51;99123.00;;;-1.22;64.11
36190;BME280;22232;50.914;13.858;2024-01-10T11:28:19;99114.91;;;-1.19;63.18
36190;BME280;22232;50.914;13.858;2024-01-10T11:30:51;99119.44;;;-1.21;62.20
36190;BME280;22232;50.914;13.858;2024-01-10T11:33:22;99108.09;;;-1.10;62.03
36190;BME280;22232;50.914;13.858;2024-01-10T11:36:11;99102.72;;;-0.77;60.45
36190;BME280;22232;50.914;13.858;2024-01-10T11:39:00;99093.81;;;-0.22;59.86
36190;BME280;22232;50.914;13.858;2024-01-10T11:41:31;99100.47;;;0.12;57.78
36190;BME280;22232;50.914;13.858;2024-01-10T11:46:42;99104.19;;;0.69;55.19
36190;BME280;22232;50.914;13.858;2024-01-10T11:49:12;99107.34;;;0.63;54.26
36190;BME280;22232;50.914;13.858;2024-01-10T11:51:43;99094.81;;;0.77;53.02
36190;BME280;22232;50.914;13.858;2024-01-10T11:54:42;99091.09;;;0.89;53.35
36190;BME280;22232;50.914;13.858;2024-01-10T11:57:11;99095.66;;;0.87;52.59
36190;BME280;22232;50.914;13.858;2024-01-10T11:59:43;99093.31;;;0.84;52.76
36190;BME280;22232;50.914;13.858;2024-01-10T12:02:14;99088.88;;;1.13;52.40
36190;BME280;22232;50.914;13.858;2024-01-10T12:04:43;99094.00;;;1.05;52.69
36190;BME280;22232;50.914;13.858;2024-01-10T12:07:16;99090.97;;;1.10;51.79
36190;BME280;22232;50.914;13.858;2024-01-10T12:09:47;99094.00;;;0.96;51.72
36190;BME280;22232;50.914;13.858;2024-01-10T12:12:15;99096.91;;;0.93;51.61
36190;BME280;22232;50.914;13.858;2024-01-10T12:14:43;99084.59;;;0.93;51.72
36190;BME280;22232;50.914;13.858;2024-01-10T12:17:12;99081.53;;;0.88;51.71
36190;BME280;22232;50.914;13.858;2024-01-10T12:19:39;99084.03;;;0.80;51.17
36190;BME280;22232;50.914;13.858;2024-01-10T12:22:08;99088.88;;;0.94;51.21
36190;BME280;22232;50.914;13.858;2024-01-10T12:24:48;99088.19;;;1.21;51.18
36190;BME280;22232;50.914;13.858;2024-01-10T12:27:21;99085.56;;;1.02;50.50
36190;BME280;22232;50.914;13.858;2024-01-10T12:29:51;99080.84;;;1.34;50.94
36190;BME280;22232;50.914;13.858;2024-01-10T12:32:21;99079.03;;;1.15;51.14
36190;BME280;22232;50.914;13.858;2024-01-10T12:35:01;99078.22;;;1.15;52.98
36190;BME280;22232;50.914;13.858;2024-01-10T12:37:29;99080.72;;;0.68;56.96
36190;BME280;22232;50.914;13.858;2024-01-10T12:39:57;99078.28;;;0.36;57.41
36190;BME280;22232;50.914;13.858;2024-01-10T12:42:25;99083.22;;;0.19;58.93
36190;BME280;22232;50.914;13.858;2024-01-10T12:44:53;99087.03;;;0.06;59.02
36190;BME280;22232;50.914;13.858;2024-01-10T12:47:22;99082.56;;;-0.04;59.44
36190;BME280;22232;50.914;13.858;2024-01-10T12:49:51;99079.34;;;-0.17;58.85
36190;BME280;22232;50.914;13.858;2024-01-10T12:52:19;99078.66;;;-0.19;60.14
36190;BME280;22232;50.914;13.858;2024-01-10T12:54:51;99077.53;;;-0.26;60.51
36190;BME280;22232;50.914;13.858;2024-01-10T12:57:20;99075.59;;;-0.24;60.09
36190;BME280;22232;50.914;13.858;2024-01-10T12:59:48;99070.09;;;-0.21;60.12
36190;BME280;22232;50.914;13.858;2024-01-10T13:02:16;99076.25;;;-0.01;60.27
36190;BME280;22232;50.914;13.858;2024-01-10T13:04:45;99069.41;;;0.17;58.61
36190;BME280;22232;50.914;13.858;2024-01-10T13:07:13;99065.44;;;0.33;58.15
36190;BME280;22232;50.914;13.858;2024-01-10T13:09:41;99065.06;;;0.47;57.83